sensor_id;sensor_type;location;lat;lon;timestamp;temperature;humidity
7307;DHT22;3694;48.732;9.248;2023-08-06T00:00:09;14.50;99.90
7307;DHT22;3694;48.732;9.248;2023-08-06T00:02:35;14.40;99.90
7307;DHT22;3694;48.732;9.248;2023-08-06T00:05:01;14.30;99.90
7307;DHT22;3694;48.732;9.248;2023-08-06T00:07:26;14.30;99.90
7307;DHT22;3694;48.732;9.248;2023-08-06T00:09:52;14.20;99.90
7307;DHT22;3694;48.732;9.248;2023-08-06T00:12:17;14.00;99.90
7307;DHT22;3694;48.732;9.248;2023-08-06T00:14:43;13.90;99.90
7307;DHT22;3694;48.732;9.248;2023-08-06T00:17:09;13.80;99.90
7307;DHT22;3694;48.732;9.248;2023-08-06T00:19:34;13.70;99.90
7307;DHT22;3694;48.732;9.248;2023-08-06T00:22:00;13.70;99.90
7307;DHT22;3694;48.732;9.248;2023-08-06T00:24:27;13.70;99.90
7307;DHT22;3694;48.732;9.248;2023-08-06T00:26:52;13.70;99.90
7307;DHT22;3694;48.732;9.248;2023-08-06T00:29:18;13.60;99.90
7307;DHT22;3694;48.732;9.248;2023-08-06T00:31:43;13.60;99.90
7307;DHT22;3694;48.732;9.248;2023-08-06T00:34:09;13.40;99.90
7307;DHT22;3694;48.732;9.248;2023-08-06T00:36:34;13.30;99.90
7307;DHT22;3694;48.732;9.248;2023-08-06T00:39:00;13.30;99.90
7307;DHT22;3694;48.732;9.248;2023-08-06T00:41:26;13.30;99.90
7307;DHT22;3694;48.732;9.248;2023-08-06T00:43:51;13.10;99.90
7307;DHT22;3694;48.732;9.248;2023-08-06T00:46:17;13.10;99.90
7307;DHT22;3694;48.732;9.248;2023-08-06T00:48:42;13.00;99.90
7307;DHT22;3694;48.732;9.248;2023-08-06T00:51:10;12.90;99.90
7307;DHT22;3694;48.732;9.248;2023-08-06T00:53:37;12.90;99.90
7307;DHT22;3694;48.732;9.248;2023-08-06T00:56:03;12.90;99.90
7307;DHT22;3694;48.732;9.248;2023-08-06T00:58:29;13.00;99.90
7307;DHT22;3694;48.732;9.248;2023-08-06T01:00:55;13.10;99.90
7307;DHT22;3694;48.732;9.248;2023-08-06T01:03:21;13.10;99.90
7307;DHT22;3694;48.732;9.248;2023-08-06T01:05:47;12.90;99.90
7307;DHT22;3694;48.732;9.248;2023-08-06T01:13:45;12.50;99.90
7307;DHT22;3694;48.732;9.248;2023-08-06T01:16:17;12.40;99.90
7307;DHT22;3694;48.732;9.248;2023-08-06T01:18:43;12.20;99.90
7307;DHT22;3694;48.732;9.248;2023-08-06T01:21:13;12.10;99.90
7307;DHT22;3694;48.732;9.248;2023-08-06T01:23:39;12.10;99.90
7307;DHT22;3694;48.732;9.248;2023-08-06T01:26:24;11.90;99.90
7307;DHT22;3694;48.732;9.248;2023-08-06T01:31:37;12.00;99.90
7307;DHT22;3694;48.732;9.248;2023-08-06T01:34:17;12.10;99.90
7307;DHT22;3694;48.732;9.248;2023-08-06T01:36:44;12.30;99.90
7307;DHT22;3694;48.732;9.248;2023-08-06T01:39:10;12.40;99.90
7307;DHT22;3694;48.732;9.248;2023-08-06T01:41:36;12.60;99.90
7307;DHT22;3694;48.732;9.248;2023-08-06T01:44:01;12.80;99.90
7307;DHT22;3694;48.732;9.248;2023-08-06T01:46:27;12.80;99.90
7307;DHT22;3694;48.732;9.248;2023-08-06T01:48:52;12.90;99.90
7307;DHT22;3694;48.732;9.248;2023-08-06T01:51:18;12.90;99.90
7307;DHT22;3694;48.732;9.248;2023-08-06T01:53:43;12.90;99.90
7307;DHT22;3694;48.732;9.248;2023-08-06T01:56:09;13.00;99.90
7307;DHT22;3694;48.732;9.248;2023-08-06T01:58:34;12.90;99.90
7307;DHT22;3694;48.732;9.248;2023-08-06T02:01:01;12.80;99.90
7307;DHT22;3694;48.732;9.248;2023-08-06T02:03:27;12.80;99.90
7307;DHT22;3694;48.732;9.248;2023-08-06T02:05:52;12.60;99.90
7307;DHT22;3694;48.732;9.248;2023-08-06T02:08:18;12.50;99.90
7307;DHT22;3694;48.732;9.248;2023-08-06T02:10:45;12.50;99.90
7307;DHT22;3694;48.732;9.248;2023-08-06T02:13:10;12.40;99.90
7307;DHT22;3694;48.732;9.248;2023-08-06T02:15:42;12.50;99.90
7307;DHT22;3694;48.732;9.248;2023-08-06T02:18:08;12.30;99.90
7307;DHT22;3694;48.732;9.248;2023-08-06T02:20:33;12.40;99.90
7307;DHT22;3694;48.732;9.248;2023-08-06T02:22:59;12.30;99.90
7307;DHT22;3694;48.732;9.248;2023-08-06T02:25:24;12.30;99.90
7307;DHT22;3694;48.732;9.248;2023-08-06T02:27:50;12.30;99.90
7307;DHT22;3694;48.732;9.248;2023-08-06T02:30:15;12.20;99.90
7307;DHT22;3694;48.732;9.248;2023-08-06T02:32:41;12.20;99.90
7307;DHT22;3694;48.732;9.248;2023-08-06T02:35:07;12.20;99.90
7307;DHT22;3694;48.732;9.248;2023-08-06T02:37:35;12.10;99.90
7307;DHT22;3694;48.732;9.248;2023-08-06T02:40:01;12.10;99.90
7307;DHT22;3694;48.732;9.248;2023-08-06T02:42:27;12.10;99.90
7307;DHT22;3694;48.732;9.248;2023-08-06T02:44:53;12.10;99.90
7307;DHT22;3694;48.732;9.248;2023-08-06T02:47:21;12.00;99.90
7307;DHT22;3694;48.732;9.248;2023-08-06T02:49:47;12.00;99.90
7307;DHT22;3694;48.732;9.248;2023-08-06T02:52:13;12.10;99.90
7307;DHT22;3694;48.732;9.248;2023-08-06T02:54:38;11.90;99.90
7307;DHT22;3694;48.732;9.248;2023-08-06T02:57:05;11.90;99.90
7307;DHT22;3694;48.732;9.248;2023-08-06T02:59:31;11.90;99.90
7307;DHT22;3694;48.732;9.248;2023-08-06T03:01:56;11.80;99.90
7307;DHT22;3694;48.732;9.248;2023-08-06T03:04:22;11.80;99.90
7307;DHT22;3694;48.732;9.248;2023-08-06T03:06:49;11.90;99.90
7307;DHT22;3694;48.732;9.248;2023-08-06T03:09:16;11.80;99.90
7307;DHT22;3694;48.732;9.248;2023-08-06T03:11:41;11.80;99.90
7307;DHT22;3694;48.732;9.248;2023-08-06T03:14:07;12.00;99.90
7307;DHT22;3694;48.732;9.248;2023-08-06T03:16:32;11.90;99.90
7307;DHT22;3694;48.732;9.248;2023-08-06T03:18:58;12.10;99.90
7307;DHT22;3694;48.732;9.248;2023-08-06T03:21:24;12.40;99.90
7307;DHT22;3694;48.732;9.248;2023-08-06T03:23:49;12.30;99.90
7307;DHT22;3694;48.732;9.248;2023-08-06T03:26:15;12.40;99.90
7307;DHT22;3694;48.732;9.248;2023-08-06T03:28:40;12.40;99.90
7307;DHT22;3694;48.732;9.248;2023-08-06T03:31:06;12.40;99.90
7307;DHT22;3694;48.732;9.248;2023-08-06T03:33:31;12.50;99.90
7307;DHT22;3694;48.732;9.248;2023-08-06T03:35:57;12.60;99.90
7307;DHT22;3694;48.732;9.248;2023-08-06T03:38:23;12.60;99.90
7307;DHT22;3694;48.732;9.248;2023-08-06T03:40:49;12.60;99.90
7307;DHT22;3694;48.732;9.248;2023-08-06T03:43:15;12.60;99.90
7307;DHT22;3694;48.732;9.248;2023-08-06T03:45:41;12.60;99.90
7307;DHT22;3694;48.732;9.248;2023-08-06T03:48:07;12.60;99.90
7307;DHT22;3694;48.732;9.248;2023-08-06T03:50:32;12.60;99.90
7307;DHT22;3694;48.732;9.248;2023-08-06T03:52:58;12.70;99.90
7307;DHT22;3694;48.732;9.248;2023-08-06T03:55:23;12.60;99.90
7307;DHT22;3694;48.732;9.248;2023-08-06T03:57:49;12.60;99.90
7307;DHT22;3694;48.732;9.248;2023-08-06T04:00:14;12.60;99.90
7307;DHT22;3694;48.732;9.248;2023-08-06T04:02:40;12.60;99.90
7307;DHT22;3694;48.732;9.248;2023-08-06T04:05:06;12.60;99.90
7307;DHT22;3694;48.732;9.248;2023-08-06T04:07:31;12.60;99.90
7307;DHT22;3694;48.732;9.248;2023-08-06T04:09:59;12.60;99.90
7307;DHT22;3694;48.732;9.248;2023-08-06T04:12:25;12.70;99.90
7307;DHT22;3694;48.732;9.248;2023-08-06T04:14:51;12.70;99.90
7307;DHT22;3694;48.732;9.248;2023-08-06T04:17:18;12.70;99.90
7307;DHT22;3694;48.732;9.248;2023-08-06T04:19:54;12.70;99.90
7307;DHT22;3694;48.732;9.248;2023-08-06T04:22:20;12.70;99.90
7307;DHT22;3694;48.732;9.248;2023-08-06T04:24:46;12.70;99.90
7307;DHT22;3694;48.732;9.248;2023-08-06T04:27:13;12.80;99.90
7307;DHT22;3694;48.732;9.248;2023-08-06T04:29:39;12.80;99.90
7307;DHT22;3694;48.732;9.248;2023-08-06T04:32:06;12.80;99.90
7307;DHT22;3694;48.732;9.248;2023-08-06T04:34:32;13.00;99.90
7307;DHT22;3694;48.732;9.248;2023-08-06T04:36:58;13.00;99.90
7307;DHT22;3694;48.732;9.248;2023-08-06T04:39:24;13.00;99.90
7307;DHT22;3694;48.732;9.248;2023-08-06T04:41:49;13.00;99.90
7307;DHT22;3694;48.732;9.248;2023-08-06T04:44:15;13.10;99.90
7307;DHT22;3694;48.732;9.248;2023-08-06T04:46:41;13.10;99.90
7307;DHT22;3694;48.732;9.248;2023-08-06T04:49:06;13.10;99.90
7307;DHT22;3694;48.732;9.248;2023-08-06T04:51:32;13.20;99.90
7307;DHT22;3694;48.732;9.248;2023-08-06T04:53:57;13.20;99.90
7307;DHT22;3694;48.732;9.248;2023-08-06T04:56:26;13.30;99.90
7307;DHT22;3694;48.732;9.248;2023-08-06T04:58:52;13.30;99.90
7307;DHT22;3694;48.732;9.248;2023-08-06T05:01:18;13.50;99.90
7307;DHT22;3694;48.732;9.248;2023-08-06T05:03:52;13.30;99.90
7307;DHT22;3694;48.732;9.248;2023-08-06T05:06:18;13.40;99.90
7307;DHT22;3694;48.732;9.248;2023-08-06T05:08:47;13.30;99.90
7307;DHT22;3694;48.732;9.248;2023-08-06T05:11:16;13.40;99.90
7307;DHT22;3694;48.732;9.248;2023-08-06T05:13:44;13.40;99.90
7307;DHT22;3694;48.732;9.248;2023-08-06T05:16:09;13.50;99.90
7307;DHT22;3694;48.732;9.248;2023-08-06T05:18:35;13.50;99.90
7307;DHT22;3694;48.732;9.248;2023-08-06T05:21:03;13.60;99.90
7307;DHT22;3694;48.732;9.248;2023-08-06T05:23:28;13.60;99.90
7307;DHT22;3694;48.732;9.248;2023-08-06T05:25:54;13.60;99.90
7307;DHT22;3694;48.732;9.248;2023-08-06T05:28:19;13.60;99.90
7307;DHT22;3694;48.732;9.248;2023-08-06T05:30:48;13.40;99.90
7307;DHT22;3694;48.732;9.248;2023-08-06T05:33:13;13.30;99.90
7307;DHT22;3694;48.732;9.248;2023-08-06T05:35:41;13.30;99.90
7307;DHT22;3694;48.732;9.248;2023-08-06T05:38:07;13.40;99.90
7307;DHT22;3694;48.732;9.248;2023-08-06T05:40:35;13.50;99.90
7307;DHT22;3694;48.732;9.248;2023-08-06T05:43:01;13.80;99.90
7307;DHT22;3694;48.732;9.248;2023-08-06T05:45:27;14.20;99.90
7307;DHT22;3694;48.732;9.248;2023-08-06T05:47:52;14.60;99.90
7307;DHT22;3694;48.732;9.248;2023-08-06T05:50:19;14.90;99.90
7307;DHT22;3694;48.732;9.248;2023-08-06T05:52:45;15.00;99.90
7307;DHT22;3694;48.732;9.248;2023-08-06T05:55:10;15.00;99.90
7307;DHT22;3694;48.732;9.248;2023-08-06T05:57:36;15.00;99.90
7307;DHT22;3694;48.732;9.248;2023-08-06T06:00:02;15.00;99.90
7307;DHT22;3694;48.732;9.248;2023-08-06T06:02:28;14.90;99.90
7307;DHT22;3694;48.732;9.248;2023-08-06T06:04:53;14.80;99.90
7307;DHT22;3694;48.732;9.248;2023-08-06T06:07:19;14.80;99.90
7307;DHT22;3694;48.732;9.248;2023-08-06T06:09:44;14.60;99.90
7307;DHT22;3694;48.732;9.248;2023-08-06T06:12:10;14.60;99.90
7307;DHT22;3694;48.732;9.248;2023-08-06T06:14:36;14.70;99.90
7307;DHT22;3694;48.732;9.248;2023-08-06T06:17:01;14.70;99.90
7307;DHT22;3694;48.732;9.248;2023-08-06T06:19:27;14.70;99.90
7307;DHT22;3694;48.732;9.248;2023-08-06T06:21:53;14.70;99.90
7307;DHT22;3694;48.732;9.248;2023-08-06T06:24:18;14.80;99.90
7307;DHT22;3694;48.732;9.248;2023-08-06T06:26:51;14.90;99.90
7307;DHT22;3694;48.732;9.248;2023-08-06T06:29:20;15.00;99.90
7307;DHT22;3694;48.732;9.248;2023-08-06T06:31:52;15.10;99.90
7307;DHT22;3694;48.732;9.248;2023-08-06T06:34:20;15.10;99.90
7307;DHT22;3694;48.732;9.248;2023-08-06T06:36:46;15.20;99.90
7307;DHT22;3694;48.732;9.248;2023-08-06T06:39:11;15.00;99.90
7307;DHT22;3694;48.732;9.248;2023-08-06T06:41:37;14.90;99.90
7307;DHT22;3694;48.732;9.248;2023-08-06T06:44:03;15.00;99.90
7307;DHT22;3694;48.732;9.248;2023-08-06T06:46:28;15.10;99.90
7307;DHT22;3694;48.732;9.248;2023-08-06T06:48:54;15.20;99.90
7307;DHT22;3694;48.732;9.248;2023-08-06T06:51:19;15.40;99.90
7307;DHT22;3694;48.732;9.248;2023-08-06T06:53:45;15.40;99.90
7307;DHT22;3694;48.732;9.248;2023-08-06T06:56:10;15.40;99.90
7307;DHT22;3694;48.732;9.248;2023-08-06T06:58:36;15.60;99.90
7307;DHT22;3694;48.732;9.248;2023-08-06T07:01:04;15.40;99.90
7307;DHT22;3694;48.732;9.248;2023-08-06T07:03:29;15.30;99.90
7307;DHT22;3694;48.732;9.248;2023-08-06T07:05:58;15.20;99.90
7307;DHT22;3694;48.732;9.248;2023-08-06T07:08:26;15.10;99.90
7307;DHT22;3694;48.732;9.248;2023-08-06T07:11:03;15.00;99.90
7307;DHT22;3694;48.732;9.248;2023-08-06T07:13:29;15.00;99.90
7307;DHT22;3694;48.732;9.248;2023-08-06T07:15:55;14.90;99.90
7307;DHT22;3694;48.732;9.248;2023-08-06T07:18:21;15.00;99.90
7307;DHT22;3694;48.732;9.248;2023-08-06T07:20:51;15.20;99.90
7307;DHT22;3694;48.732;9.248;2023-08-06T07:23:21;15.40;99.90
7307;DHT22;3694;48.732;9.248;2023-08-06T07:25:47;15.30;99.90
7307;DHT22;3694;48.732;9.248;2023-08-06T07:28:14;15.10;99.90
7307;DHT22;3694;48.732;9.248;2023-08-06T07:30:40;15.10;99.90
7307;DHT22;3694;48.732;9.248;2023-08-06T07:33:06;14.90;99.90
7307;DHT22;3694;48.732;9.248;2023-08-06T07:35:31;14.90;99.90
7307;DHT22;3694;48.732;9.248;2023-08-06T07:37:57;14.90;99.90
7307;DHT22;3694;48.732;9.248;2023-08-06T07:40:22;15.00;99.90
7307;DHT22;3694;48.732;9.248;2023-08-06T07:42:48;15.00;99.90
7307;DHT22;3694;48.732;9.248;2023-08-06T07:45:14;15.10;99.90
7307;DHT22;3694;48.732;9.248;2023-08-06T07:47:39;15.10;99.90
7307;DHT22;3694;48.732;9.248;2023-08-06T07:50:05;14.90;99.90
7307;DHT22;3694;48.732;9.248;2023-08-06T07:52:31;14.90;99.90
7307;DHT22;3694;48.732;9.248;2023-08-06T07:54:57;15.20;99.90
7307;DHT22;3694;48.732;9.248;2023-08-06T07:57:22;15.40;99.90
7307;DHT22;3694;48.732;9.248;2023-08-06T07:59:48;15.60;99.90
7307;DHT22;3694;48.732;9.248;2023-08-06T08:02:13;15.60;99.90
7307;DHT22;3694;48.732;9.248;2023-08-06T08:04:39;15.90;99.90
7307;DHT22;3694;48.732;9.248;2023-08-06T08:07:05;16.20;99.90
7307;DHT22;3694;48.732;9.248;2023-08-06T08:09:30;16.50;99.90
7307;DHT22;3694;48.732;9.248;2023-08-06T08:11:56;16.50;99.90
7307;DHT22;3694;48.732;9.248;2023-08-06T08:14:21;16.70;99.90
7307;DHT22;3694;48.732;9.248;2023-08-06T08:16:47;16.60;99.90
7307;DHT22;3694;48.732;9.248;2023-08-06T08:19:12;16.50;99.90
7307;DHT22;3694;48.732;9.248;2023-08-06T08:21:38;16.50;99.90
7307;DHT22;3694;48.732;9.248;2023-08-06T08:24:04;16.90;99.90
7307;DHT22;3694;48.732;9.248;2023-08-06T08:26:30;17.10;99.90
7307;DHT22;3694;48.732;9.248;2023-08-06T08:28:56;17.10;99.90
7307;DHT22;3694;48.732;9.248;2023-08-06T08:31:22;17.10;99.90
7307;DHT22;3694;48.732;9.248;2023-08-06T08:33:47;16.80;99.90
7307;DHT22;3694;48.732;9.248;2023-08-06T08:36:13;16.80;99.90
7307;DHT22;3694;48.732;9.248;2023-08-06T08:38:39;16.60;99.90
7307;DHT22;3694;48.732;9.248;2023-08-06T08:41:04;16.80;99.90
7307;DHT22;3694;48.732;9.248;2023-08-06T08:43:30;16.80;99.90
7307;DHT22;3694;48.732;9.248;2023-08-06T08:45:56;16.70;99.90
7307;DHT22;3694;48.732;9.248;2023-08-06T08:48:24;16.70;99.90
7307;DHT22;3694;48.732;9.248;2023-08-06T08:50:51;16.60;99.90
7307;DHT22;3694;48.732;9.248;2023-08-06T08:53:17;16.70;99.90
7307;DHT22;3694;48.732;9.248;2023-08-06T08:55:46;17.00;99.90
7307;DHT22;3694;48.732;9.248;2023-08-06T08:58:11;16.90;99.90
7307;DHT22;3694;48.732;9.248;2023-08-06T09:00:37;16.80;99.90
7307;DHT22;3694;48.732;9.248;2023-08-06T09:03:06;16.90;99.90
7307;DHT22;3694;48.732;9.248;2023-08-06T09:05:32;17.30;99.90
7307;DHT22;3694;48.732;9.248;2023-08-06T09:08:05;17.20;99.90
7307;DHT22;3694;48.732;9.248;2023-08-06T09:10:31;17.20;99.90
7307;DHT22;3694;48.732;9.248;2023-08-06T09:12:57;17.30;99.90
7307;DHT22;3694;48.732;9.248;2023-08-06T09:15:27;17.30;99.90
7307;DHT22;3694;48.732;9.248;2023-08-06T09:17:53;17.30;99.90
7307;DHT22;3694;48.732;9.248;2023-08-06T09:20:19;17.60;99.90
7307;DHT22;3694;48.732;9.248;2023-08-06T09:22:45;17.50;99.90
7307;DHT22;3694;48.732;9.248;2023-08-06T09:25:23;17.40;99.90
7307;DHT22;3694;48.732;9.248;2023-08-06T09:27:50;17.30;99.90
7307;DHT22;3694;48.732;9.248;2023-08-06T09:30:34;17.20;99.90
7307;DHT22;3694;48.732;9.248;2023-08-06T09:33:00;17.00;99.90
7307;DHT22;3694;48.732;9.248;2023-08-06T09:35:28;16.80;99.90
7307;DHT22;3694;48.732;9.248;2023-08-06T09:37:55;16.80;99.90
7307;DHT22;3694;48.732;9.248;2023-08-06T09:40:29;16.90;99.90
7307;DHT22;3694;48.732;9.248;2023-08-06T09:42:55;16.60;99.90
7307;DHT22;3694;48.732;9.248;2023-08-06T09:45:21;16.80;99.90
7307;DHT22;3694;48.732;9.248;2023-08-06T09:47:49;16.50;99.90
7307;DHT22;3694;48.732;9.248;2023-08-06T09:50:16;16.30;99.90
7307;DHT22;3694;48.732;9.248;2023-08-06T09:52:42;16.40;99.90
7307;DHT22;3694;48.732;9.248;2023-08-06T09:55:11;16.70;99.90
7307;DHT22;3694;48.732;9.248;2023-08-06T09:57:38;16.80;99.90
7307;DHT22;3694;48.732;9.248;2023-08-06T10:00:04;17.00;99.90
7307;DHT22;3694;48.732;9.248;2023-08-06T10:02:31;17.00;99.90
7307;DHT22;3694;48.732;9.248;2023-08-06T10:04:57;17.20;99.90
7307;DHT22;3694;48.732;9.248;2023-08-06T10:07:24;17.10;99.90
7307;DHT22;3694;48.732;9.248;2023-08-06T10:09:49;17.00;99.90
7307;DHT22;3694;48.732;9.248;2023-08-06T10:12:15;16.80;99.90
7307;DHT22;3694;48.732;9.248;2023-08-06T10:14:43;16.70;99.90
7307;DHT22;3694;48.732;9.248;2023-08-06T10:17:11;16.70;99.90
7307;DHT22;3694;48.732;9.248;2023-08-06T10:19:36;16.40;99.90
7307;DHT22;3694;48.732;9.248;2023-08-06T10:22:13;16.30;99.90
7307;DHT22;3694;48.732;9.248;2023-08-06T10:28:07;16.10;99.90
7307;DHT22;3694;48.732;9.248;2023-08-06T10:33:04;15.90;99.90
7307;DHT22;3694;48.732;9.248;2023-08-06T10:41:03;16.50;99.90
7307;DHT22;3694;48.732;9.248;2023-08-06T10:46:04;17.20;99.90
7307;DHT22;3694;48.732;9.248;2023-08-06T10:48:36;16.90;99.90
7307;DHT22;3694;48.732;9.248;2023-08-06T10:51:12;16.50;99.90
7307;DHT22;3694;48.732;9.248;2023-08-06T10:53:42;16.50;99.90
7307;DHT22;3694;48.732;9.248;2023-08-06T10:56:24;16.80;99.90
7307;DHT22;3694;48.732;9.248;2023-08-06T10:58:56;16.90;99.90
7307;DHT22;3694;48.732;9.248;2023-08-06T11:01:23;16.70;99.90
7307;DHT22;3694;48.732;9.248;2023-08-06T11:03:49;16.50;99.90
7307;DHT22;3694;48.732;9.248;2023-08-06T11:06:20;16.40;99.90
7307;DHT22;3694;48.732;9.248;2023-08-06T11:08:49;16.40;99.90
7307;DHT22;3694;48.732;9.248;2023-08-06T11:11:16;16.50;99.90
7307;DHT22;3694;48.732;9.248;2023-08-06T11:13:48;16.40;99.90
7307;DHT22;3694;48.732;9.248;2023-08-06T11:16:18;16.20;99.90
7307;DHT22;3694;48.732;9.248;2023-08-06T11:18:44;15.90;99.90
7307;DHT22;3694;48.732;9.248;2023-08-06T11:21:10;15.70;99.90
7307;DHT22;3694;48.732;9.248;2023-08-06T11:23:40;15.50;99.90
7307;DHT22;3694;48.732;9.248;2023-08-06T11:26:05;15.40;99.90
7307;DHT22;3694;48.732;9.248;2023-08-06T11:28:31;15.30;99.90
7307;DHT22;3694;48.732;9.248;2023-08-06T11:30:59;15.20;99.90
7307;DHT22;3694;48.732;9.248;2023-08-06T11:33:27;15.00;99.90
7307;DHT22;3694;48.732;9.248;2023-08-06T11:35:58;14.90;99.90
7307;DHT22;3694;48.732;9.248;2023-08-06T11:38:25;14.90;99.90
7307;DHT22;3694;48.732;9.248;2023-08-06T11:40:52;15.10;99.90
7307;DHT22;3694;48.732;9.248;2023-08-06T11:43:19;15.10;99.90
7307;DHT22;3694;48.732;9.248;2023-08-06T11:45:46;15.40;99.90
7307;DHT22;3694;48.732;9.248;2023-08-06T11:48:12;15.30;99.90
7307;DHT22;3694;48.732;9.248;2023-08-06T11:50:38;15.30;99.90
7307;DHT22;3694;48.732;9.248;2023-08-06T11:53:07;15.40;99.90
7307;DHT22;3694;48.732;9.248;2023-08-06T11:55:32;15.70;99.90
7307;DHT22;3694;48.732;9.248;2023-08-06T11:58:04;15.70;99.90
7307;DHT22;3694;48.732;9.248;2023-08-06T12:00:30;15.90;99.90
7307;DHT22;3694;48.732;9.248;2023-08-06T12:02:56;15.80;99.90
7307;DHT22;3694;48.732;9.248;2023-08-06T12:05:23;15.60;99.90
7307;DHT22;3694;48.732;9.248;2023-08-06T12:07:54;15.20;99.90
7307;DHT22;3694;48.732;9.248;2023-08-06T12:10:24;15.20;99.90
7307;DHT22;3694;48.732;9.248;2023-08-06T12:12:50;15.20;99.90
7307;DHT22;3694;48.732;9.248;2023-08-06T12:15:16;15.20;99.90
7307;DHT22;3694;48.732;9.248;2023-08-06T12:17:42;15.20;99.90
7307;DHT22;3694;48.732;9.248;2023-08-06T12:20:08;15.20;99.90
7307;DHT22;3694;48.732;9.248;2023-08-06T12:22:34;15.20;99.90
7307;DHT22;3694;48.732;9.248;2023-08-06T12:25:11;15.30;99.90
7307;DHT22;3694;48.732;9.248;2023-08-06T12:27:43;15.40;99.90
7307;DHT22;3694;48.732;9.248;2023-08-06T12:30:10;15.30;99.90
7307;DHT22;3694;48.732;9.248;2023-08-06T12:32:37;15.30;99.90
7307;DHT22;3694;48.732;9.248;2023-08-06T12:35:03;15.50;99.90
7307;DHT22;3694;48.732;9.248;2023-08-06T12:37:29;15.50;99.90
7307;DHT22;3694;48.732;9.248;2023-08-06T12:39:54;15.40;99.90
7307;DHT22;3694;48.732;9.248;2023-08-06T12:42:20;15.50;99.90
7307;DHT22;3694;48.732;9.248;2023-08-06T12:44:47;15.50;99.90
7307;DHT22;3694;48.732;9.248;2023-08-06T12:47:13;15.90;99.90
7307;DHT22;3694;48.732;9.248;2023-08-06T12:49:39;16.20;99.90
7307;DHT22;3694;48.732;9.248;2023-08-06T12:52:04;16.40;99.90
7307;DHT22;3694;48.732;9.248;2023-08-06T12:54:32;16.60;99.90
7307;DHT22;3694;48.732;9.248;2023-08-06T12:57:02;16.90;99.90
7307;DHT22;3694;48.732;9.248;2023-08-06T12:59:28;16.60;99.90
7307;DHT22;3694;48.732;9.248;2023-08-06T13:01:54;17.00;99.90
7307;DHT22;3694;48.732;9.248;2023-08-06T13:04:19;16.80;99.90
7307;DHT22;3694;48.732;9.248;2023-08-06T13:06:45;16.90;99.90
7307;DHT22;3694;48.732;9.248;2023-08-06T13:09:10;16.70;99.90
7307;DHT22;3694;48.732;9.248;2023-08-06T13:11:37;16.50;99.90
7307;DHT22;3694;48.732;9.248;2023-08-06T13:14:10;16.30;99.90
7307;DHT22;3694;48.732;9.248;2023-08-06T13:16:37;16.30;99.90
7307;DHT22;3694;48.732;9.248;2023-08-06T13:19:04;16.80;99.90
7307;DHT22;3694;48.732;9.248;2023-08-06T13:24:01;17.60;99.00
7307;DHT22;3694;48.732;9.248;2023-08-06T13:26:28;17.70;98.60
7307;DHT22;3694;48.732;9.248;2023-08-06T13:28:54;17.90;97.60
7307;DHT22;3694;48.732;9.248;2023-08-06T13:31:20;17.60;97.50
7307;DHT22;3694;48.732;9.248;2023-08-06T13:33:45;17.20;97.40
7307;DHT22;3694;48.732;9.248;2023-08-06T13:36:12;17.20;98.00
7307;DHT22;3694;48.732;9.248;2023-08-06T13:38:37;17.20;98.40
7307;DHT22;3694;48.732;9.248;2023-08-06T13:41:03;17.40;98.50
7307;DHT22;3694;48.732;9.248;2023-08-06T13:43:28;17.40;98.00
7307;DHT22;3694;48.732;9.248;2023-08-06T13:45:54;17.20;98.00
7307;DHT22;3694;48.732;9.248;2023-08-06T13:48:20;16.90;98.00
7307;DHT22;3694;48.732;9.248;2023-08-06T13:50:45;16.90;98.20
7307;DHT22;3694;48.732;9.248;2023-08-06T13:53:11;16.90;97.80
7307;DHT22;3694;48.732;9.248;2023-08-06T13:55:36;16.80;98.10
7307;DHT22;3694;48.732;9.248;2023-08-06T13:58:02;16.80;98.10
7307;DHT22;3694;48.732;9.248;2023-08-06T14:00:28;16.80;98.20
7307;DHT22;3694;48.732;9.248;2023-08-06T14:02:53;17.00;98.20
7307;DHT22;3694;48.732;9.248;2023-08-06T14:05:19;17.00;98.10
7307;DHT22;3694;48.732;9.248;2023-08-06T14:07:45;17.10;97.90
7307;DHT22;3694;48.732;9.248;2023-08-06T14:10:10;16.90;97.30
7307;DHT22;3694;48.732;9.248;2023-08-06T14:12:38;16.90;98.30
7307;DHT22;3694;48.732;9.248;2023-08-06T14:15:04;16.90;98.00
7307;DHT22;3694;48.732;9.248;2023-08-06T14:17:30;17.10;98.10
7307;DHT22;3694;48.732;9.248;2023-08-06T14:19:55;16.90;97.70
7307;DHT22;3694;48.732;9.248;2023-08-06T14:22:22;17.00;98.10
7307;DHT22;3694;48.732;9.248;2023-08-06T14:24:47;16.90;98.20
7307;DHT22;3694;48.732;9.248;2023-08-06T14:27:13;17.00;97.80
7307;DHT22;3694;48.732;9.248;2023-08-06T14:29:39;17.00;97.60
7307;DHT22;3694;48.732;9.248;2023-08-06T14:32:04;16.80;97.80
7307;DHT22;3694;48.732;9.248;2023-08-06T14:34:30;16.60;97.90
7307;DHT22;3694;48.732;9.248;2023-08-06T14:36:56;16.20;98.30
7307;DHT22;3694;48.732;9.248;2023-08-06T14:39:21;16.10;98.60
7307;DHT22;3694;48.732;9.248;2023-08-06T14:41:47;16.20;98.20
7307;DHT22;3694;48.732;9.248;2023-08-06T14:44:13;16.30;98.80
7307;DHT22;3694;48.732;9.248;2023-08-06T14:46:39;16.00;99.50
7307;DHT22;3694;48.732;9.248;2023-08-06T14:49:04;15.80;99.90
7307;DHT22;3694;48.732;9.248;2023-08-06T14:51:30;15.70;99.90
7307;DHT22;3694;48.732;9.248;2023-08-06T14:53:56;15.40;99.90
7307;DHT22;3694;48.732;9.248;2023-08-06T14:56:21;15.30;99.90
7307;DHT22;3694;48.732;9.248;2023-08-06T14:58:48;15.20;99.90
7307;DHT22;3694;48.732;9.248;2023-08-06T15:01:14;15.20;99.90
7307;DHT22;3694;48.732;9.248;2023-08-06T15:03:39;15.40;99.90
7307;DHT22;3694;48.732;9.248;2023-08-06T15:06:05;15.70;99.90
7307;DHT22;3694;48.732;9.248;2023-08-06T15:08:30;15.60;99.90
7307;DHT22;3694;48.732;9.248;2023-08-06T15:10:56;15.60;99.90
7307;DHT22;3694;48.732;9.248;2023-08-06T15:13:21;15.60;99.90
7307;DHT22;3694;48.732;9.248;2023-08-06T15:15:48;15.60;99.90
7307;DHT22;3694;48.732;9.248;2023-08-06T15:18:14;15.70;99.90
7307;DHT22;3694;48.732;9.248;2023-08-06T15:20:40;16.00;99.90
7307;DHT22;3694;48.732;9.248;2023-08-06T15:23:05;16.30;99.90
7307;DHT22;3694;48.732;9.248;2023-08-06T15:25:31;16.70;99.90
7307;DHT22;3694;48.732;9.248;2023-08-06T15:27:56;16.60;99.60
7307;DHT22;3694;48.732;9.248;2023-08-06T15:30:22;16.70;99.90
7307;DHT22;3694;48.732;9.248;2023-08-06T15:32:47;16.70;99.50
7307;DHT22;3694;48.732;9.248;2023-08-06T15:35:14;16.80;99.60
7307;DHT22;3694;48.732;9.248;2023-08-06T15:37:39;16.80;99.80
7307;DHT22;3694;48.732;9.248;2023-08-06T15:40:06;16.90;99.50
7307;DHT22;3694;48.732;9.248;2023-08-06T15:42:32;16.90;99.10
7307;DHT22;3694;48.732;9.248;2023-08-06T15:44:58;16.80;98.90
7307;DHT22;3694;48.732;9.248;2023-08-06T15:47:24;16.80;98.80
7307;DHT22;3694;48.732;9.248;2023-08-06T15:49:49;16.70;99.60
7307;DHT22;3694;48.732;9.248;2023-08-06T15:52:15;17.00;98.70
7307;DHT22;3694;48.732;9.248;2023-08-06T15:54:41;17.10;99.00
7307;DHT22;3694;48.732;9.248;2023-08-06T15:57:06;17.00;98.50
7307;DHT22;3694;48.732;9.248;2023-08-06T15:59:32;17.10;98.60
7307;DHT22;3694;48.732;9.248;2023-08-06T16:01:59;17.20;97.90
7307;DHT22;3694;48.732;9.248;2023-08-06T16:04:27;17.00;97.50
7307;DHT22;3694;48.732;9.248;2023-08-06T16:06:53;16.80;97.80
7307;DHT22;3694;48.732;9.248;2023-08-06T16:09:19;16.50;97.80
7307;DHT22;3694;48.732;9.248;2023-08-06T16:11:48;16.30;98.10
7307;DHT22;3694;48.732;9.248;2023-08-06T16:14:13;16.00;98.60
7307;DHT22;3694;48.732;9.248;2023-08-06T16:16:39;16.20;97.90
7307;DHT22;3694;48.732;9.248;2023-08-06T16:19:05;16.50;98.80
7307;DHT22;3694;48.732;9.248;2023-08-06T16:21:31;16.60;97.40